createdAt,value
2022-11-08T04:46:24.843Z,4.00
2022-11-08T04:48:54.277Z,4.10
2022-11-08T04:51:26.909Z,4.00
2022-11-08T04:53:56.429Z,4.10
2022-11-08T04:56:24.679Z,4.00
2022-11-08T04:58:53.772Z,4.10
2022-11-08T05:01:23.295Z,4.10
2022-11-08T05:03:51.796Z,4.00
2022-11-08T05:06:21.761Z,4.00
2022-11-08T05:08:48.537Z,4.00
2022-11-08T05:11:18.524Z,3.90
2022-11-08T05:13:46.763Z,4.00
2022-11-08T05:16:22.637Z,4.00
2022-11-08T05:18:50.232Z,4.00
2022-11-08T05:21:37.413Z,4.00
2022-11-08T05:24:06.370Z,4.00
2022-11-08T05:26:37.850Z,4.00
2022-11-08T05:29:05.042Z,4.00
2022-11-08T05:31:32.275Z,4.00
2022-11-08T05:34:00.648Z,4.00
2022-11-08T05:36:28.453Z,4.10
2022-11-08T05:38:55.941Z,4.10
2022-11-08T05:41:24.454Z,4.10
2022-11-08T05:43:53.049Z,4.10
2022-11-08T05:46:20.804Z,4.00
2022-11-08T05:48:48.399Z,4.00
2022-11-08T05:51:17.020Z,4.00
2022-11-08T05:53:43.997Z,4.10
2022-11-08T05:56:10.713Z,4.10
2022-11-08T05:58:37.795Z,4.00
2022-11-08T06:01:15.916Z,4.00
2022-11-08T06:03:42.877Z,4.10
2022-11-08T06:06:12.190Z,4.00
2022-11-08T06:08:39.605Z,4.00
2022-11-08T06:11:11.632Z,4.10
2022-11-08T06:13:39.395Z,4.10
2022-11-08T06:16:09.039Z,4.20
2022-11-08T06:18:36.189Z,4.30
2022-11-08T06:21:05.102Z,4.30
2022-11-08T06:23:32.652Z,4.30
2022-11-08T06:26:00.028Z,4.40
2022-11-08T06:28:27.590Z,4.40
2022-11-08T06:30:54.578Z,4.30
2022-11-08T06:33:21.779Z,4.30
2022-11-08T06:35:48.735Z,4.40
2022-11-08T06:38:15.430Z,4.40
2022-11-08T06:40:42.590Z,4.40
2022-11-08T06:43:15.060Z,4.40
2022-11-08T06:45:45.969Z,4.50
2022-11-08T06:48:12.674Z,4.50
2022-11-08T06:50:39.361Z,4.50
2022-11-08T06:53:08.280Z,4.60
2022-11-08T06:55:36.363Z,4.70
2022-11-08T06:58:04.005Z,4.70
2022-11-08T07:00:31.516Z,4.70
2022-11-08T07:03:03.523Z,4.70
2022-11-08T07:05:32.462Z,4.80
2022-11-08T07:07:59.885Z,4.80
2022-11-08T07:10:30.192Z,4.80
2022-11-08T07:13:05.967Z,4.90
2022-11-08T07:15:34.224Z,5.00
2022-11-08T07:18:07.338Z,5.00
2022-11-08T07:20:35.101Z,5.10
2022-11-08T07:23:02.288Z,5.10
2022-11-08T07:25:30.622Z,5.10
2022-11-08T07:28:02.363Z,5.20
2022-11-08T07:30:30.167Z,5.30
2022-11-08T07:32:57.470Z,5.30
2022-11-08T07:35:25.659Z,5.40
2022-11-08T07:37:52.400Z,5.70
2022-11-08T07:40:19.200Z,5.90
2022-11-08T07:43:13.485Z,6.30
2022-11-08T07:45:32.834Z,6.60
2022-11-08T07:48:09.769Z,7.20
2022-11-08T07:50:37.744Z,7.90
2022-11-08T07:53:04.426Z,8.60
2022-11-08T07:55:31.181Z,9.10
2022-11-08T07:58:01.370Z,9.40
2022-11-08T08:00:29.411Z,9.50
2022-11-08T08:03:03.274Z,9.50
2022-11-08T08:05:34.324Z,9.50
2022-11-08T08:08:02.116Z,9.40
2022-11-08T08:10:29.656Z,9.80
2022-11-08T08:12:57.231Z,10.10
2022-11-08T08:15:25.070Z,10.00
2022-11-08T08:17:51.947Z,9.90
2022-11-08T08:20:19.319Z,9.60
2022-11-08T08:22:51.002Z,9.50
2022-11-08T08:25:18.454Z,9.40
2022-11-08T08:27:52.408Z,9.50
2022-11-08T08:30:19.753Z,9.90
2022-11-08T08:32:53.566Z,11.00
2022-11-08T08:35:24.543Z,12.00
2022-11-08T08:37:51.237Z,12.50
2022-11-08T08:40:18.011Z,12.60
2022-11-08T08:42:44.724Z,12.30
2022-11-08T08:45:14.927Z,12.10
2022-11-08T08:47:42.112Z,11.90
2022-11-08T08:50:09.078Z,11.70
2022-11-08T08:52:35.790Z,11.50
2022-11-08T08:55:02.537Z,11.50
2022-11-08T08:57:30.499Z,11.20
2022-11-08T09:02:44.488Z,11.20
2022-11-08T09:05:12.897Z,11.30
2022-11-08T09:07:40.818Z,11.70
2022-11-08T09:10:09.334Z,12.90
2022-11-08T09:12:36.497Z,13.90
2022-11-08T09:15:05.702Z,14.40
2022-11-08T09:17:32.498Z,14.40
2022-11-08T09:19:59.369Z,14.10
2022-11-08T09:22:26.129Z,13.70
2022-11-08T09:24:52.878Z,13.00
2022-11-08T09:27:19.582Z,12.60
2022-11-08T09:29:46.243Z,12.10
2022-11-08T09:32:13.009Z,11.70
2022-11-08T09:34:39.788Z,11.60
2022-11-08T09:37:06.754Z,11.60
2022-11-08T09:39:33.457Z,11.40
2022-11-08T09:42:11.817Z,11.60
2022-11-08T09:45:02.958Z,11.90
2022-11-08T09:47:37.483Z,12.50
2022-11-08T09:50:12.988Z,13.50
2022-11-08T09:52:45.182Z,14.60
2022-11-08T09:55:34.459Z,15.40
2022-11-08T09:58:19.725Z,14.90
2022-11-08T10:00:50.751Z,14.30
2022-11-08T10:03:18.837Z,13.90
2022-11-08T10:06:19.242Z,13.50
2022-11-08T10:08:50.625Z,13.00
2022-11-08T10:11:27.853Z,12.80
2022-11-08T10:14:09.607Z,12.70
2022-11-08T10:17:11.902Z,12.60
2022-11-08T10:20:07.265Z,12.60
2022-11-08T10:22:36.990Z,12.80
2022-11-08T10:25:17.828Z,12.80
2022-11-08T10:27:44.503Z,13.00
2022-11-08T10:30:30.352Z,13.30
2022-11-08T10:32:57.907Z,13.70
2022-11-08T10:35:38.112Z,14.00
2022-11-08T10:38:17.772Z,14.50
2022-11-08T10:41:12.603Z,16.30
2022-11-08T10:43:48.970Z,18.70
2022-11-08T10:46:37.006Z,19.50
2022-11-08T10:49:19.489Z,19.80
2022-11-08T10:51:49.183Z,19.60
2022-11-08T10:54:52.886Z,19.00
2022-11-08T10:57:31.765Z,18.10
2022-11-08T11:00:16.365Z,17.20
2022-11-08T11:02:43.839Z,16.70
2022-11-08T11:05:16.739Z,16.30
2022-11-08T11:07:59.168Z,16.10
2022-11-08T11:10:29.397Z,16.20
2022-11-08T11:13:17.894Z,16.50
2022-11-08T11:15:58.733Z,16.60
2022-11-08T11:18:36.028Z,16.50
2022-11-08T11:21:21.735Z,16.50
2022-11-08T11:23:54.529Z,16.40
2022-11-08T11:26:21.230Z,16.30
2022-11-08T11:29:14.754Z,16.20
2022-11-08T11:31:44.388Z,16.20
2022-11-08T11:34:45.086Z,15.90
2022-11-08T11:37:11.724Z,15.70
2022-11-08T11:39:57.153Z,15.90
2022-11-08T11:45:19.010Z,16.30
2022-11-08T11:48:16.112Z,16.40
2022-11-08T11:50:50.639Z,16.60
2022-11-08T11:53:22.691Z,16.40
2022-11-08T11:56:23.320Z,16.20
2022-11-08T11:59:17.322Z,16.10
2022-11-08T12:02:12.191Z,15.50
2022-11-08T12:04:59.257Z,15.00
2022-11-08T12:07:32.929Z,14.80
2022-11-08T12:10:14.488Z,14.70
2022-11-08T12:13:07.153Z,14.70
2022-11-08T12:15:57.381Z,14.60
2022-11-08T12:18:44.631Z,14.60
2022-11-08T12:21:22.017Z,14.50
2022-11-08T12:23:57.664Z,14.40
2022-11-08T12:26:39.313Z,14.40
2022-11-08T12:29:36.337Z,14.40
2022-11-08T12:32:34.126Z,14.20
2022-11-08T12:35:28.304Z,14.20
2022-11-08T12:38:10.911Z,14.20
2022-11-08T12:40:56.785Z,14.00
2022-11-08T12:44:06.833Z,13.90
2022-11-08T12:46:44.864Z,13.90
2022-11-08T12:49:23.944Z,13.90
2022-11-08T12:51:58.560Z,14.00
2022-11-08T12:54:51.397Z,14.30
2022-11-08T12:57:28.047Z,14.50
2022-11-08T13:00:16.531Z,14.70
2022-11-08T13:02:46.945Z,14.80
2022-11-08T13:05:35.585Z,14.90
2022-11-08T13:08:15.161Z,15.20
2022-11-08T13:10:50.788Z,15.20
2022-11-08T13:13:47.887Z,15.20
2022-11-08T13:16:35.997Z,15.30
2022-11-08T13:19:05.758Z,15.80
2022-11-08T13:21:39.014Z,16.40
2022-11-08T13:24:13.983Z,16.90
2022-11-08T13:26:53.606Z,17.10
2022-11-08T13:29:27.337Z,16.80
2022-11-08T13:31:56.822Z,16.40
2022-11-08T13:34:57.922Z,16.40
2022-11-08T13:37:55.668Z,16.50
2022-11-08T13:41:01.069Z,16.20
2022-11-08T13:43:31.355Z,16.40
2022-11-08T13:46:25.767Z,16.70
2022-11-08T13:48:58.758Z,17.20
2022-11-08T13:51:36.764Z,17.50
2022-11-08T13:54:21.701Z,17.90
2022-11-08T13:56:54.223Z,18.20
2022-11-08T13:59:33.236Z,18.60
2022-11-08T14:02:05.657Z,18.80
2022-11-08T14:04:40.324Z,18.90
2022-11-08T14:07:43.204Z,18.90
2022-11-08T14:10:22.807Z,18.80
2022-11-08T14:12:57.325Z,18.70
2022-11-08T14:15:56.924Z,18.80
2022-11-08T14:18:25.890Z,18.70
2022-11-08T14:20:54.721Z,18.80
2022-11-08T14:23:24.164Z,18.90
2022-11-08T14:25:56.896Z,18.90
2022-11-08T14:28:30.021Z,18.90
2022-11-08T14:30:59.008Z,18.80
2022-11-08T14:33:30.971Z,18.70
2022-11-08T14:36:00.489Z,18.30
2022-11-08T14:38:29.112Z,18.00
2022-11-08T14:41:02.463Z,17.50
2022-11-08T14:43:29.940Z,17.20
2022-11-08T14:45:58.158Z,16.80
2022-11-08T14:48:28.440Z,16.60
2022-11-08T14:51:02.725Z,16.20
2022-11-08T14:53:44.048Z,15.70
2022-11-08T14:56:22.548Z,15.40
2022-11-08T14:58:51.154Z,15.10
2022-11-08T15:01:22.412Z,14.80
2022-11-08T15:04:04.454Z,14.50
2022-11-08T15:06:43.202Z,14.40
2022-11-08T15:09:18.021Z,14.30
2022-11-08T15:11:52.935Z,14.20
2022-11-08T15:14:22.920Z,14.00
2022-11-08T15:16:55.327Z,13.80
2022-11-08T15:19:31.403Z,13.70
2022-11-08T15:21:59.587Z,13.70
2022-11-08T15:24:37.907Z,13.50
2022-11-08T15:27:10.561Z,13.50
2022-11-08T15:29:59.297Z,13.30
2022-11-08T15:32:26.915Z,13.20
2022-11-08T15:34:55.817Z,13.20
2022-11-08T15:37:38.983Z,13.20
2022-11-08T15:40:16.145Z,13.10
2022-11-08T15:42:51.385Z,13.10
2022-11-08T15:45:18.004Z,12.90
2022-11-08T15:47:46.860Z,12.70
2022-11-08T15:50:31.446Z,12.60
2022-11-08T15:53:00.855Z,12.50
2022-11-08T15:55:39.527Z,12.50
2022-11-08T15:58:15.874Z,12.30
2022-11-08T16:00:49.729Z,12.20
2022-11-08T16:03:16.375Z,12.10
2022-11-08T16:05:43.135Z,12.00
2022-11-08T16:08:09.796Z,11.90
2022-11-08T16:10:59.568Z,11.80
2022-11-08T16:13:35.300Z,11.80
2022-11-08T16:16:04.859Z,11.80
2022-11-08T16:18:34.179Z,11.80
2022-11-08T16:21:01.417Z,11.70
2022-11-08T16:23:28.263Z,11.60
2022-11-08T16:25:56.846Z,11.50
2022-11-08T16:28:39.309Z,11.50
2022-11-08T16:31:13.632Z,11.50
2022-11-08T16:33:41.519Z,11.40
2022-11-08T16:36:25.212Z,11.50
2022-11-08T16:38:54.520Z,11.50
2022-11-08T16:41:22.366Z,11.50
2022-11-08T16:43:49.325Z,11.50
2022-11-08T16:46:16.580Z,11.40
2022-11-08T16:48:49.280Z,11.40
2022-11-08T16:51:21.478Z,11.40
2022-11-08T16:53:49.174Z,11.30
2022-11-08T16:56:16.314Z,11.30
2022-11-08T16:58:43.740Z,11.20
2022-11-08T17:01:21.228Z,11.20
2022-11-08T17:03:48.069Z,11.20
2022-11-08T17:06:18.129Z,11.10
2022-11-08T17:08:48.315Z,11.10
2022-11-08T17:11:20.799Z,11.00
2022-11-08T17:13:48.026Z,11.00
2022-11-08T17:16:15.310Z,10.90
2022-11-08T17:18:42.546Z,10.80
2022-11-08T17:21:42.561Z,10.80
2022-11-08T17:23:59.449Z,10.80
2022-11-08T17:26:26.692Z,10.70
2022-11-08T17:28:55.891Z,10.60
2022-11-08T17:31:22.555Z,10.60
2022-11-08T17:33:49.237Z,10.50
2022-11-08T17:36:15.880Z,10.40
2022-11-08T17:38:42.925Z,10.40
2022-11-08T17:41:14.708Z,10.20
2022-11-08T17:43:42.580Z,10.20
2022-11-08T17:46:10.704Z,10.20
2022-11-08T17:48:38.572Z,10.20
2022-11-08T17:51:05.456Z,10.20
2022-11-08T17:53:33.533Z,10.10
2022-11-08T17:56:02.685Z,10.10
2022-11-08T17:58:32.403Z,10.10
2022-11-08T18:00:59.980Z,10.00
2022-11-08T18:03:27.398Z,10.00
2022-11-08T18:06:06.114Z,10.00
2022-11-08T18:08:34.083Z,9.90
2022-11-08T18:11:01.442Z,9.90
2022-11-08T18:13:29.334Z,9.80
2022-11-08T18:16:05.125Z,9.80
2022-11-08T18:18:31.820Z,9.70
2022-11-08T18:20:58.554Z,9.80
2022-11-08T18:23:25.295Z,9.80
2022-11-08T18:25:53.304Z,9.70
2022-11-08T18:28:20.008Z,9.70
2022-11-08T18:30:48.236Z,9.60
2022-11-08T18:33:18.899Z,9.60
2022-11-08T18:35:46.803Z,9.60
2022-11-08T18:38:14.343Z,9.50
2022-11-08T18:40:44.756Z,9.50
2022-11-08T18:43:11.475Z,9.40
2022-11-08T18:45:38.665Z,9.30
2022-11-08T18:48:05.815Z,9.20
2022-11-08T18:50:32.661Z,9.20
2022-11-08T18:53:03.288Z,9.10
2022-11-08T18:55:31.768Z,9.00
2022-11-08T18:58:00.882Z,9.10
2022-11-08T19:00:27.551Z,8.90
2022-11-08T19:02:54.643Z,8.90
2022-11-08T19:05:21.334Z,8.80
2022-11-08T19:07:48.013Z,8.70
2022-11-08T19:10:14.765Z,8.70
2022-11-08T19:12:41.423Z,8.70
2022-11-08T19:15:08.898Z,8.70
2022-11-08T19:17:36.338Z,8.60
2022-11-08T19:20:04.126Z,8.60
2022-11-08T19:22:30.839Z,8.60
2022-11-08T19:24:57.517Z,8.60
2022-11-08T19:27:24.365Z,8.60
2022-11-08T19:29:51.039Z,8.40
2022-11-08T19:32:17.765Z,8.30
2022-11-08T19:34:46.950Z,8.30
2022-11-08T19:37:13.684Z,8.30
2022-11-08T19:39:40.489Z,8.40
2022-11-08T19:42:07.242Z,8.30
2022-11-08T19:44:33.975Z,8.20
2022-11-08T19:47:00.747Z,8.10
2022-11-08T19:49:28.672Z,8.10
2022-11-08T19:51:55.362Z,8.20
2022-11-08T19:54:22.070Z,8.20
2022-11-08T19:57:05.884Z,8.20
2022-11-08T19:59:32.969Z,8.20
2022-11-08T20:01:59.931Z,8.20
2022-11-08T20:04:26.840Z,8.20
2022-11-08T20:06:53.607Z,8.10
2022-11-08T20:09:21.294Z,8.20
2022-11-08T20:11:49.380Z,8.20
2022-11-08T20:14:16.072Z,8.20
2022-11-08T20:16:44.366Z,8.20
2022-11-08T20:19:16.496Z,8.20
2022-11-08T20:21:46.047Z,8.20
2022-11-08T20:24:13.222Z,8.20
2022-11-08T20:26:41.309Z,8.20
2022-11-08T20:29:08.526Z,8.10
2022-11-08T20:31:35.740Z,8.10
2022-11-08T20:34:05.879Z,8.00
2022-11-08T20:36:35.238Z,8.00
2022-11-08T20:39:06.974Z,7.90
2022-11-08T20:41:36.928Z,7.90
2022-11-08T20:44:04.139Z,8.00
2022-11-08T20:46:32.350Z,7.90
2022-11-08T20:49:01.000Z,7.90
2022-11-08T20:51:29.922Z,7.80
2022-11-08T20:53:58.244Z,7.80
2022-11-08T20:56:25.225Z,7.80
2022-11-08T20:58:52.933Z,7.80
2022-11-08T21:01:21.789Z,7.90
2022-11-08T21:03:48.912Z,8.00
2022-11-08T21:06:18.372Z,8.00
2022-11-08T21:09:09.325Z,8.00
2022-11-08T21:11:34.567Z,8.00
2022-11-08T21:14:02.154Z,8.00
2022-11-08T21:16:30.909Z,8.00
2022-11-08T21:19:00.022Z,8.00
2022-11-08T21:21:27.146Z,8.00
2022-11-08T21:23:54.619Z,8.00
2022-11-08T21:26:22.257Z,8.10
2022-11-08T21:28:49.157Z,8.10
2022-11-08T21:31:16.208Z,8.10
2022-11-08T21:33:43.203Z,8.00
2022-11-08T21:36:10.556Z,8.00
2022-11-08T21:38:39.086Z,8.00
2022-11-08T21:41:10.193Z,8.00
2022-11-08T21:43:45.085Z,8.00
2022-11-08T21:46:25.785Z,8.00
2022-11-08T21:48:58.049Z,8.00
2022-11-08T21:51:26.066Z,8.00
2022-11-08T21:53:55.438Z,8.00
2022-11-08T21:56:24.790Z,8.00
2022-11-08T21:58:51.639Z,8.00
2022-11-08T22:01:18.723Z,8.00
2022-11-08T22:03:46.630Z,8.00
2022-11-08T22:06:13.575Z,8.00
2022-11-08T22:08:40.281Z,8.00
2022-11-08T22:11:07.091Z,8.00
2022-11-08T22:13:34.054Z,7.90
2022-11-08T22:16:01.322Z,7.90
2022-11-08T22:18:43.583Z,7.80
2022-11-08T22:21:33.390Z,7.70
2022-11-08T22:24:00.093Z,7.70
2022-11-08T22:26:26.867Z,7.70
2022-11-08T22:28:53.600Z,7.70
2022-11-08T22:31:20.266Z,7.60
2022-11-08T22:33:46.999Z,7.60
2022-11-08T22:36:13.802Z,7.70
2022-11-08T22:38:40.760Z,7.70
2022-11-08T22:41:07.503Z,7.70
2022-11-08T22:43:35.799Z,7.70
2022-11-08T22:46:02.684Z,7.70
2022-11-08T22:48:29.432Z,7.60
2022-11-08T22:50:56.191Z,7.60
2022-11-08T22:53:23.266Z,7.50
2022-11-08T22:55:50.137Z,7.50
2022-11-08T22:58:17.002Z,7.50
2022-11-08T23:00:43.919Z,7.50
2022-11-08T23:03:10.651Z,7.60
2022-11-08T23:05:37.419Z,7.60
2022-11-08T23:08:04.472Z,7.60
2022-11-08T23:10:31.144Z,7.60
2022-11-08T23:13:16.588Z,7.60
2022-11-08T23:16:02.298Z,7.60
2022-11-08T23:18:29.018Z,7.50
2022-11-08T23:21:14.143Z,7.50
2022-11-08T23:23:59.761Z,7.50
2022-11-08T23:26:45.221Z,7.50
2022-11-08T23:29:30.822Z,7.50
2022-11-08T23:31:57.529Z,7.40
2022-11-08T23:34:24.230Z,7.30
2022-11-08T23:36:50.970Z,7.30
2022-11-08T23:39:17.778Z,7.40
2022-11-08T23:42:03.370Z,7.40
2022-11-08T23:44:30.198Z,7.40
2022-11-08T23:46:59.015Z,7.20
2022-11-08T23:49:26.170Z,7.20
2022-11-08T23:51:53.128Z,7.20
2022-11-08T23:54:20.431Z,7.20
2022-11-08T23:56:47.413Z,7.20
2022-11-08T23:59:15.159Z,7.30
